METAR Analyzer

一覧表示

Hello, Guest. (Login)

RJFF/FUK  -  福岡

観測日時
2020-10-25 14:00 (UTC) (20分前)
気温
14
露点
10
湿数
4
相対湿度
76.8%
QNH
1018.6hPa
推定現地気圧
1017.5hPa
推定海面気圧
1018.6hPa
体感温度
8.8
(無風時)
15.9
HI
13.5
気温前日比
+3
体感温度前日比
+8.1
HI前日比
+3.2
水平視程
>10000m
鉛直視程
データなし
雲底高度
データなし
V/I
判定不可
RVR
No RVR data
卓越風
3kt from 70° (20° ~ 100°)
ガスト
No gust
降水
報告なし
その他の天気
NSC
報告なし

RJFF 251400Z AUTO 07003KT 020V100 9999 NSC 14/10 Q1018 NOSIG RMK A3008

RJFR/KKJ  -  北九州

観測日時
2020-10-25 14:00 (UTC) (20分前)
気温
16
露点
10
湿数
6
相対湿度
67.5%
QNH
1018hPa
推定現地気圧
1017.3hPa
推定海面気圧
1018.0hPa
体感温度
9.3
(無風時)
17.3
HI
15.4
気温前日比
±0
体感温度前日比
+1.8
HI前日比
+0.4
水平視程
>10000m
鉛直視程
データなし
雲底高度
No dense clouds
V/I
VMC (VFR)
RVR
No RVR data
卓越風
5kt from 230°
ガスト
No gust
降水
報告なし
その他の天気
報告なし
報告なし

RJFR 251400Z 23005KT CAVOK 16/10 Q1018

RJFA  -  芦屋基地

観測日時
2020-10-25 14:00 (UTC) (20分前)
気温
12
露点
9
湿数
3
相対湿度
81.9%
QNH
1018.6hPa
推定現地気圧
1015.0hPa
推定海面気圧
1018.6hPa
体感温度
4.4
(無風時)
14.3
HI
11.4
気温前日比
+1
体感温度前日比
+0.9
HI前日比
+1.4
水平視程
>10000m
鉛直視程
データなし
雲底高度
Unknown
V/I
判定不可
RVR
No RVR data
卓越風
5kt from 170°
ガスト
No gust
降水
報告なし
その他の天気
報告なし
少しの(1/8) 高積雲 @ 15000ft AGL / 隙間のある雲 @ 不明な高さ

RJFA 251400Z 17005KT 9999 FEW150 BKN/// 12/09 Q1018 RMK 1AC150 A3008

RJFZ  -  築城基地

観測日時
2020-10-25 14:00 (UTC) (20分前)
気温
12
露点
10
湿数
2
相対湿度
87.6%
QNH
1018.6hPa
推定現地気圧
1016.5hPa
推定海面気圧
1018.6hPa
体感温度
4.3
(無風時)
14.4
HI
11.5
気温前日比
+1
体感温度前日比
+1
HI前日比
+1.4
水平視程
>10000m
鉛直視程
データなし
雲底高度
No dense clouds
V/I
VMC (VFR)
RVR
No RVR data
卓越風
5kt from 240°
ガスト
No gust
降水
報告なし
その他の天気
報告なし
少しの(1/8) 積雲 @ 3000ft AGL

RJFZ 251400Z 24005KT 9999 FEW030 12/10 Q1018 RMK 1CU030 A3008

RJFS/HSG  -  佐賀

観測日時
2020-10-25 14:00 (UTC) (20分前)
気温
12
露点
9
湿数
3
相対湿度
81.9%
QNH
1018hPa
推定現地気圧
1017.8hPa
推定海面気圧
1018.0hPa
体感温度
6.5
(無風時)
14.3
HI
11.4
気温前日比
+2
体感温度前日比
-1.4
HI前日比
+2.1
水平視程
>10000m
鉛直視程
データなし
雲底高度
No dense clouds
V/I
VMC (VFR)
RVR
No RVR data
卓越風
3kt from 20° (350° ~ 50°)
ガスト
No gust
降水
報告なし
その他の天気
報告なし
報告なし

RJFS 251400Z 02003KT 350V050 CAVOK 12/09 Q1018

RJFO/OIT  -  大分

観測日時
2020-10-25 13:00 (UTC) (80分前)
気温
16
露点
10
湿数
6
相対湿度
67.5%
QNH
1018hPa
推定現地気圧
1017.4hPa
推定海面気圧
1018.0hPa
体感温度
9.3
(無風時)
17.3
HI
15.4
気温前日比
+3
体感温度前日比
+4
HI前日比
+3.4
水平視程
>10000m
鉛直視程
データなし
雲底高度
No dense clouds
V/I
VMC (VFR)
RVR
No RVR data
卓越風
5kt from 280° (240° ~ 320°)
ガスト
No gust
降水
報告なし
その他の天気
報告なし
報告なし

RJFO 251300Z 28005KT 240V320 CAVOK 16/10 Q1018

RJFN  -  新田原基地

観測日時
2020-10-25 14:00 (UTC) (20分前)
気温
14
露点
10
湿数
4
相対湿度
76.8%
QNH
1019.3hPa
推定現地気圧
1009.8hPa
推定海面気圧
1019.3hPa
体感温度
6.3
(無風時)
15.9
HI
13.5
気温前日比
+1
体感温度前日比
+2
HI前日比
+1.6
水平視程
>10000m
鉛直視程
データなし
雲底高度
Unknown
V/I
判定不可
RVR
No RVR data
卓越風
6kt from 300°
ガスト
No gust
降水
報告なし
その他の天気
報告なし
少しの(1/8) 積雲 @ 3000ft AGL / 隙間のある雲 @ 不明な高さ

RJFN 251400Z 30006KT 9999 FEW030 BKN/// 14/10 Q1019 RMK 1CU030 A3010

RJFY  -  鹿屋航空基地

観測日時
2020-10-25 14:00 (UTC) (20分前)
気温
13
露点
7
湿数
6
相対湿度
66.9%
QNH
1019.0hPa
推定現地気圧
1011.2hPa
推定海面気圧
1019.1hPa
体感温度
11
(無風時)
15
HI
12.1
気温前日比
+2
体感温度前日比
+8.3
HI前日比
+2.1
水平視程
>10000m
鉛直視程
データなし
雲底高度
23000ft AGL
V/I
VMC (VFR)
RVR
No RVR data
卓越風
1kt from VRB
ガスト
No gust
降水
報告なし
その他の天気
報告なし
少しの(1/8) 積雲 @ 3000ft AGL / 隙間のある雲 @ 23000ft AGL

RJFY 251400Z VRB01KT 9999 FEW030 BKN230 13/07 Q1019 RMK 1CU030 A3009

RJKI/KKX  -  喜界

観測日時
2020-10-25 14:00 (UTC) (20分前)
気温
19
露点
14
湿数
5
相対湿度
72.7%
QNH
1017.9hPa
推定現地気圧
1017.3hPa
推定海面気圧
1017.9hPa
体感温度
14.3
(無風時)
19.8
HI
18.9
気温前日比
-2
体感温度前日比
+1.3
HI前日比
-1.8
水平視程
>10000m
鉛直視程
データなし
雲底高度
No dense clouds
V/I
VMC (VFR)
RVR
No RVR data
卓越風
3kt from 110°
ガスト
No gust
降水
報告なし
その他の天気
報告なし
少しの雲 @ 3800ft AGL

RJKI 251400Z AUTO 11003KT 9999 FEW038 19/14 Q1017 RMK A3006

株式会社マネーパートナーズ 【Manepa Card】

RJKN/TKN  -  徳之島

観測日時
2020-10-25 14:00 (UTC) (20分前)
気温
20
露点
15
湿数
5
相対湿度
72.9%
QNH
1017.9hPa
推定現地気圧
1017.7hPa
推定海面気圧
1017.9hPa
体感温度
15.4
(無風時)
20.6
HI
20
気温前日比
-1
体感温度前日比
+1.9
HI前日比
-0.7
水平視程
>10000m
鉛直視程
データなし
雲底高度
データなし
V/I
判定不可
RVR
No RVR data
卓越風
3kt from 60°
ガスト
No gust
降水
報告なし
その他の天気
NSC
報告なし

RJKN 251400Z AUTO 06003KT 9999 NSC 20/15 Q1018 RMK A3006

RORY/RNJ  -  与論

観測日時
2020-10-25 14:00 (UTC) (20分前)
気温
23
露点
16
湿数
7
相対湿度
64.7%
QNH
1017.3hPa
推定現地気圧
1015.6hPa
推定海面気圧
1017.2hPa
体感温度
16.3
(無風時)
22.6
HI
23
気温前日比
+1
体感温度前日比
+1.6
HI前日比
+1.2
水平視程
>10000m
鉛直視程
データなし
雲底高度
17000ft AGL
V/I
VMC (VFR)
RVR
No RVR data
卓越風
8kt from 50° (10° ~ 70°)
ガスト
No gust
降水
報告なし
その他の天気
報告なし
少しの雲 @ 3600ft AGL / 散在する雲 @ 4000ft AGL / 隙間のある雲 @ 17000ft AGL

RORY 251400Z AUTO 05008KT 010V070 9999 FEW036 SCT040 BKN170 23/16 Q1017 RMK A3004

9.6msec